Strona główna
METAR-TAF:

METAR-TAF

Lotnisko :

Port lotniczy Brunei

Brunei, Brunei

Szerokość geograficzna: 04-56N, Długość geograficzna: 114-56E, wysokość: 22 m

Aktualna obserwacja pogody

Raport powstał 25 minut temu, godzina 07:00 UTC
Wiatr 9 kt od północ
Temperatura 31°C
Wilgotność 66%
Ciśnienie 1011 hPa
Widzialność 10 km lub więcej
Mało chmury na wysokości 1700 ft
Rozproszone chmury na wysokości 30000 ft

METAR: WBSB 220700Z 36009KT 9999 FEW017 SCT300 31/24 Q1011 NOSIG

czas: 15:25 (07:25 UTC)

Prognoza

Raport powstał 2 godziny i 35 minut temu, godzina 04:50 UTC
Prognoza ważna od 22 godzina 06 UTC do 23 godzina 12 UTC
Wiatr 16 kt od północno-północny wschód
Widzialność 10 km lub więcej
Mało chmury na wysokości 1700 ft
Stopniowe zmiany
od 22 godzina 13 UTC do 22 godzina 15 UTC
Mało chmury na wysokości 1500 ft

TAF: WBSB 220450Z 2206/2312 03016KT 9999 FEW017 BECMG 2213/2215 FEW015

Obserwacja i prognoza pogody dla ponad 4000 lotnisk (raport METAR i TAF).

Dostępne stacje oznaczono żółtymi i czerwonymi punktami na mapie.

Najedź kursorem aby zobaczyć nazwę stacji.

Kliknij aby zobaczyć obserwacje i prognozy pogody.

Aby zmienić mapę: kliknij na zielony przycisk z czarnym krzyżykiem, aby powiększyć; na zielony przycisk z myślnikiem, aby pomniejszyć; na zielone strzałki, aby przejść do map sąsiednich.


METAR-TAF: